x

Shumagin Islands - 85nm South Of Sand Point, Ak (46075) Wave Buoy

3:50 - Fri 31st Jul 2015 All times are UTC.

  • Sig Wave height 2.6ft
  • Peak Period 16s
  • Average Period 10s
  • Wind
    4mph, 7mph gusts
  • Sea Temp 55°f
  • Ar Temp 54°f
  • Sea Pressure 1018.9mb

More Historic Weather Station data

Upgrade to MSW Pro to gain access to the past 30 days of data for over 8000 Wavebouys and Weather Stations around the globe.

Join Pro

Comparision Forecast

View Surf forecast
   
Sex 07/31 3:50 2.5ft 16s 10s 4 7 mph 1018.9mb 55f 54f
2:50 3ft 15s 11s 4 7 mph 1018.8mb 55f 55f
1:50 3ft 15s 10s 4
mph
1018.8mb 55f 55f
12:50 3ft 15s 11s 7
mph
1018.7mb 55f 55f
Qui 07/30 11:50 3ft 15s 11s 7 9 mph 1018.8mb 55f 55f
10:50 3.5ft 15s 11s 7 9 mph 1018.8mb 55f 55f
9:50 3ft 16s 10s 7 9 mph 1018.7mb 55f 55f
8:50 3ft 15s 10s 7 9 mph 1018.6mb 55f 54f
7:50 2.5ft 15s 9s 7
mph
1018.2mb 54f 54f
6:50 3ft 16s 9s 7 9 mph 1018mb 54f 54f
5:50 3ft 15s 9s 7 9 mph 1017.8mb 54f 53f
4:50 3.5ft 16s  -  9
mph
1017.5mb 54f 53f
3:50 3ft 16s 8s 9
mph
1017.3mb 54f 53f
2:50 3.5ft 15s 8s 9 11 mph 1016.9mb 54f 53f
1:50 3.5ft 16s 9s 11
mph
1016.8mb 54f 53f
12:50 3.5ft 15s 10s 9
mph
1016.7mb 54f 52f
11:50 3ft 15s 9s 4 7 mph 1016.6mb 54f 53f
10:50 3ft 16s 8s 7
mph
1016.4mb 54f 52f
9:50 2.5ft 16s 8s 7
mph
1016.2mb 54f 52f
8:50 3.5ft 16s 9s 7
mph
1016.2mb 54f 52f
7:50 3.5ft 16s 8s 7 9 mph 1016.1mb 54f 52f
6:50 3.5ft 16s 8s 7 9 mph 1015.8mb 54f 53f
5:50 3.5ft 16s 8s 4 7 mph 1015.5mb 54f 53f
4:50 3.5ft 16s 8s 7
mph
1015.4mb 54f 53f
3:50 3ft 16s 7s 7
mph
1015mb 54f 53f
2:50 3.5ft 16s 7s 9
mph
1015.2mb 54f 53f
1:50 3.5ft 15s 7s 4 7 mph 1015.3mb 54f 53f
12:50 3.5ft 16s 7s 7
mph
1015.4mb 54f 53f
Qua 07/29 11:50 3.5ft 16s 7s 7 9 mph 1015.4mb 54f 53f
10:50 3.5ft 16s 7s 7
mph
1015.4mb 54f 53f
9:50 3.5ft 16s 7s 4 7 mph 1015.4mb 54f 53f
8:50 3.5ft 16s 7s 4 7 mph 1015.4mb 54f 53f
7:50 3.5ft 16s 7s 2 4 mph 1015.3mb 54f 53f
6:50 3.5ft 16s 7s 4
mph
1015.2mb 53f 53f
5:50 3.5ft 16s 7s 4
mph
1015mb 54f 53f
4:50 3.5ft 16s 7s 4 7 mph 1014.7mb 54f 53f
3:50 3.5ft 16s 7s 4
mph
1014.5mb 54f 53f
2:50 3.5ft 16s 6s 4 7 mph 1014.6mb 53f 53f
1:50 3.5ft 17s 6s 4
mph
1014.6mb 53f 53f
12:50 3.5ft 16s 6s 4 7 mph 1014.7mb 54f 53f
11:50 4ft 16s 7s 4
mph
1014.7mb 53f 53f
10:50 3.5ft 15s 6s 2 4 mph 1015mb 53f 53f
9:50 4ft 16s 7s 4
mph
1015.1mb 54f 53f
8:50 4ft 16s 7s 4
mph
1014.9mb 54f 53f
7:50 4ft 16s 7s 2 4 mph 1014.9mb 54f 52f
6:50 3.5ft 16s 6s 2 4 mph 1014.6mb 53f 52f
5:50 4ft 16s 7s 2 4 mph 1014.5mb 54f 53f
4:50 4ft 7s 6s 4 7 mph 1014.6mb 53f 54f
3:50 4ft 7s 6s 4 7 mph 1014.7mb 53f 53f
2:50 4ft 8s 6s 4
mph
1014.6mb 53f 53f
1:50 4.5ft 16s 7s 4
mph
1014.8mb 53f 53f
12:50 3.5ft 16s 6s 4
mph
1014.8mb 53f 53f
Ter 07/28 11:50 4ft 16s 6s 4 7 mph 1014.9mb 52f 53f
10:50 4.5ft 8s 6s 7
mph
1014.8mb 52f 52f
9:50 4.5ft 8s 6s 7 9 mph 1014.6mb 52f 52f
8:50 4.5ft 16s 6s 7 9 mph 1014.6mb 52f 52f
7:50 4.5ft 7s 6s 7
mph
1014.4mb 52f 52f
6:50 5ft 7s 6s 7 9 mph 1014.6mb 52f 51f
5:50 5ft 7s 6s 9 11 mph 1014.6mb 52f 51f
4:50 5ft 8s 6s 9
mph
1014.6mb 52f 51f
3:50 5ft 7s 6s 7 9 mph 1014.5mb 52f 51f
2:50 5ft 7s 6s 9 11 mph 1014.4mb 52f 51f
1:50 5.5ft 8s 6s 9 11 mph 1014.5mb 52f 51f
12:50 5.5ft 8s 6s 13 16 mph 1014.7mb 52f 51f
11:50 5ft 8s 6s 16 20 mph 1015mb 52f 51f
10:50 5ft 8s 5s 16 18 mph 1014.9mb 52f 52f
9:50 5ft 8s 6s 16 20 mph 1014.7mb 52f 52f
8:50 5ft 7s 6s 13 16 mph 1014.7mb 52f 52f
7:50 5ft 7s 6s 13 18 mph 1014.9mb 52f 51f
6:50 5ft 7s 6s 13 18 mph 1014.9mb 52f 51f
5:50 5.5ft 7s 6s 16 18 mph 1014.7mb 52f 51f
4:50 6ft 8s 6s 13 16 mph 1014.9mb 52f 51f
3:50 5.5ft 7s 5s 18 20 mph 1014.9mb 52f 51f
2:50 5.5ft 7s 5s 16 20 mph 1014.9mb 52f 51f
1:50 6ft 8s 5s 18 20 mph 1015.1mb 52f 51f
12:50 6ft 7s 5s 18 22 mph 1015.2mb 52f 51f
Seg 07/27 11:50 5.5ft 7s 5s 20 25 mph 1015.3mb 52f 51f
10:50 5ft 7s 5s 18 22 mph 1015.2mb 52f 51f
9:50 5ft 7s 5s 18 22 mph 1015.3mb 52f 52f
8:50 5ft 7s 5s 16 20 mph 1015.4mb 52f 51f
7:50 5ft 7s 6s 16 20 mph 1015.8mb 52f 51f
6:50 6ft 8s 6s 16 18 mph 1016mb 52f 51f
5:50 6ft 7s 6s 18 20 mph 1016.1mb 52f 51f
4:50 7ft 6s 6s 18 22 mph 1016.2mb 52f 51f
3:50 6.5ft 7s 6s 20 22 mph 1016.4mb 52f 51f
2:50 7ft 8s 6s 22 29 mph 1016.6mb 52f 51f
1:50 8ft 7s 6s 20 25 mph 1016.8mb 52f 51f
12:50 7.5ft 8s 6s 18 20 mph 1016.7mb 52f 51f
11:50 8ft 7s 6s 18 22 mph 1017.1mb 53f 51f
10:50 7ft 8s 6s 13 16 mph 1017.3mb 53f 51f
9:50 6ft 6s 6s 16 18 mph 1017.2mb 53f 52f
8:50 6ft 8s 6s 13 16 mph 1017.1mb 52f 52f
7:50 5.5ft 8s 6s 13 18 mph 1016.8mb 52f 52f
6:50 5.5ft 9s 6s 11 13 mph 1016.6mb 53f 52f
5:50 6ft 7s 6s 13 16 mph 1016.3mb 53f 53f